sensor_id;sensor_type;location;lat;lon;timestamp;P1;durP1;ratioP1;P2;durP2;ratioP2
72621;SDS011;60665;53.506;9.582;2022-07-23T00:01:57;3.28;;;1.00;;
72621;SDS011;60665;53.506;9.582;2022-07-23T00:04:23;5.30;;;1.17;;
72621;SDS011;60665;53.506;9.582;2022-07-23T00:06:48;4.60;;;0.95;;
72621;SDS011;60665;53.506;9.582;2022-07-23T00:09:13;4.90;;;1.27;;
72621;SDS011;60665;53.506;9.582;2022-07-23T00:11:39;6.43;;;1.30;;
72621;SDS011;60665;53.506;9.582;2022-07-23T00:14:04;4.10;;;0.80;;
72621;SDS011;60665;53.506;9.582;2022-07-23T00:16:29;4.63;;;1.13;;
72621;SDS011;60665;53.506;9.582;2022-07-23T00:18:55;5.05;;;1.20;;
72621;SDS011;60665;53.506;9.582;2022-07-23T00:21:20;4.88;;;1.10;;
72621;SDS011;60665;53.506;9.582;2022-07-23T00:23:45;3.55;;;0.90;;
72621;SDS011;60665;53.506;9.582;2022-07-23T00:26:11;5.28;;;1.10;;
72621;SDS011;60665;53.506;9.582;2022-07-23T00:28:36;4.00;;;0.77;;
72621;SDS011;60665;53.506;9.582;2022-07-23T00:31:02;4.18;;;1.35;;
72621;SDS011;60665;53.506;9.582;2022-07-23T00:33:28;9.38;;;1.42;;
72621;SDS011;60665;53.506;9.582;2022-07-23T00:35:53;8.80;;;1.10;;
72621;SDS011;60665;53.506;9.582;2022-07-23T00:38:18;4.95;;;1.25;;
72621;SDS011;60665;53.506;9.582;2022-07-23T00:40:44;2.83;;;0.88;;
72621;SDS011;60665;53.506;9.582;2022-07-23T00:43:09;4.47;;;1.23;;
72621;SDS011;60665;53.506;9.582;2022-07-23T00:45:34;4.32;;;1.08;;
72621;SDS011;60665;53.506;9.582;2022-07-23T00:48:00;4.90;;;0.93;;
72621;SDS011;60665;53.506;9.582;2022-07-23T00:50:25;5.78;;;1.08;;
72621;SDS011;60665;53.506;9.582;2022-07-23T00:52:51;4.57;;;1.08;;
72621;SDS011;60665;53.506;9.582;2022-07-23T00:55:17;4.93;;;1.20;;
72621;SDS011;60665;53.506;9.582;2022-07-23T00:57:43;4.60;;;1.00;;
72621;SDS011;60665;53.506;9.582;2022-07-23T01:00:10;7.28;;;1.50;;
72621;SDS011;60665;53.506;9.582;2022-07-23T01:02:37;5.10;;;1.05;;
72621;SDS011;60665;53.506;9.582;2022-07-23T01:05:03;4.95;;;1.02;;
72621;SDS011;60665;53.506;9.582;2022-07-23T01:07:28;5.35;;;1.20;;
72621;SDS011;60665;53.506;9.582;2022-07-23T01:09:54;3.97;;;1.10;;
72621;SDS011;60665;53.506;9.582;2022-07-23T01:12:19;3.47;;;1.02;;
72621;SDS011;60665;53.506;9.582;2022-07-23T01:14:46;5.53;;;1.00;;
72621;SDS011;60665;53.506;9.582;2022-07-23T01:17:22;6.82;;;1.20;;
72621;SDS011;60665;53.506;9.582;2022-07-23T01:19:47;4.60;;;1.13;;
72621;SDS011;60665;53.506;9.582;2022-07-23T01:22:13;4.40;;;1.23;;
72621;SDS011;60665;53.506;9.582;2022-07-23T01:24:40;8.23;;;1.73;;
72621;SDS011;60665;53.506;9.582;2022-07-23T01:27:05;4.60;;;1.45;;
72621;SDS011;60665;53.506;9.582;2022-07-23T01:29:31;4.70;;;1.33;;
72621;SDS011;60665;53.506;9.582;2022-07-23T01:31:56;3.35;;;1.20;;
72621;SDS011;60665;53.506;9.582;2022-07-23T01:34:22;3.55;;;1.23;;
72621;SDS011;60665;53.506;9.582;2022-07-23T01:36:47;5.32;;;1.60;;
72621;SDS011;60665;53.506;9.582;2022-07-23T01:39:12;5.30;;;1.50;;
72621;SDS011;60665;53.506;9.582;2022-07-23T01:41:38;7.35;;;1.35;;
72621;SDS011;60665;53.506;9.582;2022-07-23T01:44:03;4.57;;;1.52;;
72621;SDS011;60665;53.506;9.582;2022-07-23T01:46:28;5.60;;;1.52;;
72621;SDS011;60665;53.506;9.582;2022-07-23T01:48:54;6.97;;;1.35;;
72621;SDS011;60665;53.506;9.582;2022-07-23T01:51:19;6.68;;;1.27;;
72621;SDS011;60665;53.506;9.582;2022-07-23T01:53:45;6.82;;;1.23;;
72621;SDS011;60665;53.506;9.582;2022-07-23T01:56:11;5.35;;;1.20;;
72621;SDS011;60665;53.506;9.582;2022-07-23T01:58:36;3.67;;;0.98;;
72621;SDS011;60665;53.506;9.582;2022-07-23T02:01:01;6.72;;;1.42;;
72621;SDS011;60665;53.506;9.582;2022-07-23T02:03:27;4.45;;;1.23;;
72621;SDS011;60665;53.506;9.582;2022-07-23T02:05:53;5.10;;;1.17;;
72621;SDS011;60665;53.506;9.582;2022-07-23T02:08:18;5.63;;;1.42;;
72621;SDS011;60665;53.506;9.582;2022-07-23T02:10:44;4.38;;;1.30;;
72621;SDS011;60665;53.506;9.582;2022-07-23T02:13:10;4.47;;;1.23;;
72621;SDS011;60665;53.506;9.582;2022-07-23T02:15:35;5.20;;;1.33;;
72621;SDS011;60665;53.506;9.582;2022-07-23T02:18:01;3.22;;;1.23;;
72621;SDS011;60665;53.506;9.582;2022-07-23T02:20:27;6.03;;;1.77;;
72621;SDS011;60665;53.506;9.582;2022-07-23T02:22:52;4.30;;;1.35;;
72621;SDS011;60665;53.506;9.582;2022-07-23T02:25:17;3.65;;;1.50;;
72621;SDS011;60665;53.506;9.582;2022-07-23T02:27:43;5.68;;;1.42;;
72621;SDS011;60665;53.506;9.582;2022-07-23T02:30:08;6.22;;;1.85;;
72621;SDS011;60665;53.506;9.582;2022-07-23T02:32:34;4.72;;;1.85;;
72621;SDS011;60665;53.506;9.582;2022-07-23T02:35:00;4.68;;;1.48;;
72621;SDS011;60665;53.506;9.582;2022-07-23T02:37:26;7.50;;;1.88;;
72621;SDS011;60665;53.506;9.582;2022-07-23T02:39:52;4.25;;;1.70;;
72621;SDS011;60665;53.506;9.582;2022-07-23T02:42:18;5.15;;;1.92;;
72621;SDS011;60665;53.506;9.582;2022-07-23T02:44:44;4.22;;;1.50;;
72621;SDS011;60665;53.506;9.582;2022-07-23T02:47:09;5.03;;;1.65;;
72621;SDS011;60665;53.506;9.582;2022-07-23T02:49:35;6.32;;;1.90;;
72621;SDS011;60665;53.506;9.582;2022-07-23T02:52:01;3.83;;;1.23;;
72621;SDS011;60665;53.506;9.582;2022-07-23T02:54:27;6.75;;;2.00;;
72621;SDS011;60665;53.506;9.582;2022-07-23T02:56:52;4.47;;;1.42;;
72621;SDS011;60665;53.506;9.582;2022-07-23T02:59:18;3.90;;;1.38;;
72621;SDS011;60665;53.506;9.582;2022-07-23T03:01:43;4.53;;;1.73;;
72621;SDS011;60665;53.506;9.582;2022-07-23T03:04:09;4.13;;;1.55;;
72621;SDS011;60665;53.506;9.582;2022-07-23T03:06:35;5.43;;;1.77;;
72621;SDS011;60665;53.506;9.582;2022-07-23T03:09:00;5.68;;;1.75;;
72621;SDS011;60665;53.506;9.582;2022-07-23T03:11:26;6.35;;;1.50;;
72621;SDS011;60665;53.506;9.582;2022-07-23T03:13:51;3.80;;;1.50;;
72621;SDS011;60665;53.506;9.582;2022-07-23T03:16:17;4.35;;;1.42;;
72621;SDS011;60665;53.506;9.582;2022-07-23T03:18:42;5.40;;;1.63;;
72621;SDS011;60665;53.506;9.582;2022-07-23T03:21:07;4.75;;;1.58;;
72621;SDS011;60665;53.506;9.582;2022-07-23T03:23:33;6.90;;;1.80;;
72621;SDS011;60665;53.506;9.582;2022-07-23T03:25:58;8.48;;;2.20;;
72621;SDS011;60665;53.506;9.582;2022-07-23T03:28:24;6.47;;;1.83;;
72621;SDS011;60665;53.506;9.582;2022-07-23T03:30:49;5.22;;;2.10;;
72621;SDS011;60665;53.506;9.582;2022-07-23T03:33:15;4.32;;;1.80;;
72621;SDS011;60665;53.506;9.582;2022-07-23T03:35:42;5.03;;;1.60;;
72621;SDS011;60665;53.506;9.582;2022-07-23T03:38:10;7.32;;;1.80;;
72621;SDS011;60665;53.506;9.582;2022-07-23T03:40:35;9.23;;;1.55;;
72621;SDS011;60665;53.506;9.582;2022-07-23T03:43:00;5.88;;;1.70;;
72621;SDS011;60665;53.506;9.582;2022-07-23T03:45:26;10.35;;;1.90;;
72621;SDS011;60665;53.506;9.582;2022-07-23T03:47:52;7.40;;;2.22;;
72621;SDS011;60665;53.506;9.582;2022-07-23T03:50:17;6.20;;;1.88;;
72621;SDS011;60665;53.506;9.582;2022-07-23T03:52:42;5.55;;;2.00;;
72621;SDS011;60665;53.506;9.582;2022-07-23T03:55:08;6.18;;;1.98;;
72621;SDS011;60665;53.506;9.582;2022-07-23T03:57:33;6.07;;;2.00;;
72621;SDS011;60665;53.506;9.582;2022-07-23T03:59:59;5.18;;;1.70;;
72621;SDS011;60665;53.506;9.582;2022-07-23T04:02:24;4.95;;;1.92;;
72621;SDS011;60665;53.506;9.582;2022-07-23T04:04:50;8.05;;;2.22;;
72621;SDS011;60665;53.506;9.582;2022-07-23T04:07:15;5.63;;;2.00;;
72621;SDS011;60665;53.506;9.582;2022-07-23T04:09:42;5.57;;;2.03;;
72621;SDS011;60665;53.506;9.582;2022-07-23T04:12:08;6.70;;;2.08;;
72621;SDS011;60665;53.506;9.582;2022-07-23T04:14:33;5.78;;;1.65;;
72621;SDS011;60665;53.506;9.582;2022-07-23T04:16:59;6.60;;;1.95;;
72621;SDS011;60665;53.506;9.582;2022-07-23T04:19:24;5.05;;;1.95;;
72621;SDS011;60665;53.506;9.582;2022-07-23T04:21:50;6.63;;;2.05;;
72621;SDS011;60665;53.506;9.582;2022-07-23T04:24:16;4.70;;;1.90;;
72621;SDS011;60665;53.506;9.582;2022-07-23T04:26:42;6.63;;;2.10;;
72621;SDS011;60665;53.506;9.582;2022-07-23T04:29:08;6.28;;;1.90;;
72621;SDS011;60665;53.506;9.582;2022-07-23T04:31:35;4.95;;;1.55;;
72621;SDS011;60665;53.506;9.582;2022-07-23T04:34:00;5.75;;;1.83;;
72621;SDS011;60665;53.506;9.582;2022-07-23T04:36:26;6.80;;;1.80;;
72621;SDS011;60665;53.506;9.582;2022-07-23T04:38:51;4.15;;;1.80;;
72621;SDS011;60665;53.506;9.582;2022-07-23T04:41:16;4.15;;;1.65;;
72621;SDS011;60665;53.506;9.582;2022-07-23T04:43:42;6.43;;;2.20;;
72621;SDS011;60665;53.506;9.582;2022-07-23T04:46:07;3.85;;;1.35;;
72621;SDS011;60665;53.506;9.582;2022-07-23T04:48:32;3.85;;;1.45;;
72621;SDS011;60665;53.506;9.582;2022-07-23T04:50:58;4.40;;;1.67;;
72621;SDS011;60665;53.506;9.582;2022-07-23T04:53:23;4.60;;;1.67;;
72621;SDS011;60665;53.506;9.582;2022-07-23T04:55:48;8.18;;;2.00;;
72621;SDS011;60665;53.506;9.582;2022-07-23T04:58:14;5.47;;;2.38;;
72621;SDS011;60665;53.506;9.582;2022-07-23T05:00:39;4.85;;;2.05;;
72621;SDS011;60665;53.506;9.582;2022-07-23T05:03:05;7.15;;;2.75;;
72621;SDS011;60665;53.506;9.582;2022-07-23T05:05:30;3.58;;;1.63;;
72621;SDS011;60665;53.506;9.582;2022-07-23T05:07:55;5.60;;;1.80;;
72621;SDS011;60665;53.506;9.582;2022-07-23T05:10:21;4.97;;;1.77;;
72621;SDS011;60665;53.506;9.582;2022-07-23T05:12:46;6.50;;;2.00;;
72621;SDS011;60665;53.506;9.582;2022-07-23T05:15:11;6.47;;;2.05;;
72621;SDS011;60665;53.506;9.582;2022-07-23T05:17:37;8.35;;;2.30;;
72621;SDS011;60665;53.506;9.582;2022-07-23T05:20:03;5.47;;;2.15;;
72621;SDS011;60665;53.506;9.582;2022-07-23T05:22:28;8.20;;;2.30;;
72621;SDS011;60665;53.506;9.582;2022-07-23T05:24:54;7.68;;;2.17;;
72621;SDS011;60665;53.506;9.582;2022-07-23T05:27:19;6.03;;;2.47;;
72621;SDS011;60665;53.506;9.582;2022-07-23T05:29:46;4.63;;;1.98;;
72621;SDS011;60665;53.506;9.582;2022-07-23T05:32:11;6.70;;;2.15;;
72621;SDS011;60665;53.506;9.582;2022-07-23T05:34:36;7.30;;;2.05;;
72621;SDS011;60665;53.506;9.582;2022-07-23T05:37:02;6.25;;;2.40;;
72621;SDS011;60665;53.506;9.582;2022-07-23T05:39:27;6.05;;;2.20;;
72621;SDS011;60665;53.506;9.582;2022-07-23T05:41:52;5.53;;;2.03;;
72621;SDS011;60665;53.506;9.582;2022-07-23T05:44:18;5.78;;;2.03;;
72621;SDS011;60665;53.506;9.582;2022-07-23T05:46:43;7.85;;;2.42;;
72621;SDS011;60665;53.506;9.582;2022-07-23T05:49:09;4.93;;;2.30;;
72621;SDS011;60665;53.506;9.582;2022-07-23T05:51:34;5.18;;;2.08;;
72621;SDS011;60665;53.506;9.582;2022-07-23T05:53:59;4.13;;;1.92;;
72621;SDS011;60665;53.506;9.582;2022-07-23T05:56:25;5.68;;;2.15;;
72621;SDS011;60665;53.506;9.582;2022-07-23T05:58:50;6.30;;;2.20;;
72621;SDS011;60665;53.506;9.582;2022-07-23T06:01:15;4.60;;;2.10;;
72621;SDS011;60665;53.506;9.582;2022-07-23T06:03:41;5.78;;;1.90;;
72621;SDS011;60665;53.506;9.582;2022-07-23T06:06:06;6.07;;;1.95;;
72621;SDS011;60665;53.506;9.582;2022-07-23T06:08:32;4.47;;;1.65;;
72621;SDS011;60665;53.506;9.582;2022-07-23T06:10:57;5.00;;;1.50;;
72621;SDS011;60665;53.506;9.582;2022-07-23T06:13:22;4.43;;;1.45;;
72621;SDS011;60665;53.506;9.582;2022-07-23T06:15:48;2.15;;;0.88;;
72621;SDS011;60665;53.506;9.582;2022-07-23T06:18:13;3.83;;;1.13;;
72621;SDS011;60665;53.506;9.582;2022-07-23T06:20:40;2.55;;;0.90;;
72621;SDS011;60665;53.506;9.582;2022-07-23T06:23:05;2.78;;;0.80;;
72621;SDS011;60665;53.506;9.582;2022-07-23T06:25:31;2.22;;;0.63;;
72621;SDS011;60665;53.506;9.582;2022-07-23T06:27:56;3.10;;;0.98;;
72621;SDS011;60665;53.506;9.582;2022-07-23T06:30:22;1.92;;;0.60;;
72621;SDS011;60665;53.506;9.582;2022-07-23T06:32:47;2.90;;;0.82;;
72621;SDS011;60665;53.506;9.582;2022-07-23T06:35:13;6.18;;;1.63;;
72621;SDS011;60665;53.506;9.582;2022-07-23T06:37:38;7.00;;;0.90;;
72621;SDS011;60665;53.506;9.582;2022-07-23T06:40:04;3.13;;;0.70;;
72621;SDS011;60665;53.506;9.582;2022-07-23T06:42:30;4.80;;;1.02;;
72621;SDS011;60665;53.506;9.582;2022-07-23T06:44:55;3.78;;;0.82;;
72621;SDS011;60665;53.506;9.582;2022-07-23T06:47:21;2.97;;;0.82;;
72621;SDS011;60665;53.506;9.582;2022-07-23T06:49:46;4.63;;;0.73;;
72621;SDS011;60665;53.506;9.582;2022-07-23T06:52:12;5.00;;;1.10;;
72621;SDS011;60665;53.506;9.582;2022-07-23T06:54:37;4.93;;;0.90;;
72621;SDS011;60665;53.506;9.582;2022-07-23T06:57:02;2.90;;;0.85;;
72621;SDS011;60665;53.506;9.582;2022-07-23T06:59:28;3.45;;;0.98;;
72621;SDS011;60665;53.506;9.582;2022-07-23T07:01:53;3.25;;;0.73;;
72621;SDS011;60665;53.506;9.582;2022-07-23T07:04:18;3.42;;;0.80;;
72621;SDS011;60665;53.506;9.582;2022-07-23T07:06:44;3.88;;;0.90;;
72621;SDS011;60665;53.506;9.582;2022-07-23T07:09:09;1.95;;;0.70;;
72621;SDS011;60665;53.506;9.582;2022-07-23T07:11:34;1.67;;;0.68;;
72621;SDS011;60665;53.506;9.582;2022-07-23T07:14:00;1.85;;;0.57;;
72621;SDS011;60665;53.506;9.582;2022-07-23T07:16:25;4.10;;;1.10;;
72621;SDS011;60665;53.506;9.582;2022-07-23T07:18:50;2.50;;;0.80;;
72621;SDS011;60665;53.506;9.582;2022-07-23T07:21:16;1.50;;;0.60;;
72621;SDS011;60665;53.506;9.582;2022-07-23T07:23:41;1.65;;;0.70;;
72621;SDS011;60665;53.506;9.582;2022-07-23T07:26:07;1.38;;;0.80;;
72621;SDS011;60665;53.506;9.582;2022-07-23T07:28:32;3.28;;;0.65;;
72621;SDS011;60665;53.506;9.582;2022-07-23T07:30:57;2.08;;;0.70;;
72621;SDS011;60665;53.506;9.582;2022-07-23T07:33:23;2.95;;;0.60;;
72621;SDS011;60665;53.506;9.582;2022-07-23T07:35:48;1.65;;;0.50;;
72621;SDS011;60665;53.506;9.582;2022-07-23T07:38:13;2.08;;;0.60;;
72621;SDS011;60665;53.506;9.582;2022-07-23T07:40:39;3.58;;;0.60;;
72621;SDS011;60665;53.506;9.582;2022-07-23T07:43:04;2.05;;;0.35;;
72621;SDS011;60665;53.506;9.582;2022-07-23T07:45:30;3.38;;;0.73;;
72621;SDS011;60665;53.506;9.582;2022-07-23T07:47:55;2.10;;;0.63;;
72621;SDS011;60665;53.506;9.582;2022-07-23T07:50:21;2.40;;;0.63;;
72621;SDS011;60665;53.506;9.582;2022-07-23T07:52:47;1.92;;;0.43;;
72621;SDS011;60665;53.506;9.582;2022-07-23T07:55:12;1.15;;;0.43;;
72621;SDS011;60665;53.506;9.582;2022-07-23T07:57:37;1.65;;;0.55;;
72621;SDS011;60665;53.506;9.582;2022-07-23T08:00:07;2.40;;;0.52;;
72621;SDS011;60665;53.506;9.582;2022-07-23T08:02:44;1.27;;;0.40;;
72621;SDS011;60665;53.506;9.582;2022-07-23T08:05:10;1.42;;;0.30;;
72621;SDS011;60665;53.506;9.582;2022-07-23T08:07:36;3.15;;;0.43;;
72621;SDS011;60665;53.506;9.582;2022-07-23T08:10:02;1.52;;;0.52;;
72621;SDS011;60665;53.506;9.582;2022-07-23T08:12:28;2.17;;;0.60;;
72621;SDS011;60665;53.506;9.582;2022-07-23T08:14:54;1.52;;;0.50;;
72621;SDS011;60665;53.506;9.582;2022-07-23T08:17:19;0.93;;;0.43;;
72621;SDS011;60665;53.506;9.582;2022-07-23T08:19:45;1.13;;;0.35;;
72621;SDS011;60665;53.506;9.582;2022-07-23T08:22:10;0.63;;;0.43;;
72621;SDS011;60665;53.506;9.582;2022-07-23T08:24:35;1.85;;;0.40;;
72621;SDS011;60665;53.506;9.582;2022-07-23T08:27:01;2.42;;;0.75;;
72621;SDS011;60665;53.506;9.582;2022-07-23T08:29:28;1.63;;;0.47;;
72621;SDS011;60665;53.506;9.582;2022-07-23T08:31:53;2.03;;;0.57;;
72621;SDS011;60665;53.506;9.582;2022-07-23T08:34:19;1.40;;;0.55;;
72621;SDS011;60665;53.506;9.582;2022-07-23T08:36:44;1.92;;;0.50;;
72621;SDS011;60665;53.506;9.582;2022-07-23T08:39:09;0.95;;;0.52;;
72621;SDS011;60665;53.506;9.582;2022-07-23T08:41:35;2.85;;;0.68;;
72621;SDS011;60665;53.506;9.582;2022-07-23T08:44:00;1.35;;;0.50;;
72621;SDS011;60665;53.506;9.582;2022-07-23T08:46:26;2.75;;;0.60;;
72621;SDS011;60665;53.506;9.582;2022-07-23T08:48:52;1.98;;;0.63;;
72621;SDS011;60665;53.506;9.582;2022-07-23T08:51:19;2.30;;;0.63;;
72621;SDS011;60665;53.506;9.582;2022-07-23T08:53:44;2.67;;;1.08;;
72621;SDS011;60665;53.506;9.582;2022-07-23T08:56:10;2.53;;;0.60;;
72621;SDS011;60665;53.506;9.582;2022-07-23T08:58:36;0.90;;;0.40;;
72621;SDS011;60665;53.506;9.582;2022-07-23T09:01:02;4.50;;;0.80;;
72621;SDS011;60665;53.506;9.582;2022-07-23T09:03:28;3.50;;;0.70;;
72621;SDS011;60665;53.506;9.582;2022-07-23T09:05:55;1.60;;;0.55;;
72621;SDS011;60665;53.506;9.582;2022-07-23T09:08:38;1.35;;;0.43;;
72621;SDS011;60665;53.506;9.582;2022-07-23T09:11:05;1.42;;;0.60;;
72621;SDS011;60665;53.506;9.582;2022-07-23T09:13:38;3.95;;;0.50;;
72621;SDS011;60665;53.506;9.582;2022-07-23T09:16:18;1.17;;;0.60;;
72621;SDS011;60665;53.506;9.582;2022-07-23T09:18:46;1.92;;;0.70;;
72621;SDS011;60665;53.506;9.582;2022-07-23T09:21:15;2.53;;;0.60;;
72621;SDS011;60665;53.506;9.582;2022-07-23T09:26:23;3.42;;;0.50;;
72621;SDS011;60665;53.506;9.582;2022-07-23T09:31:56;1.10;;;0.40;;
72621;SDS011;60665;53.506;9.582;2022-07-23T09:34:30;1.20;;;0.40;;
72621;SDS011;60665;53.506;9.582;2022-07-23T09:39:35;1.55;;;0.40;;
72621;SDS011;60665;53.506;9.582;2022-07-23T09:44:48;0.88;;;0.40;;
72621;SDS011;60665;53.506;9.582;2022-07-23T09:47:15;0.95;;;0.50;;
72621;SDS011;60665;53.506;9.582;2022-07-23T09:50:00;1.48;;;0.40;;
72621;SDS011;60665;53.506;9.582;2022-07-23T09:52:28;0.77;;;0.40;;
72621;SDS011;60665;53.506;9.582;2022-07-23T09:55:14;2.78;;;0.43;;
72621;SDS011;60665;53.506;9.582;2022-07-23T09:57:40;1.05;;;0.40;;
72621;SDS011;60665;53.506;9.582;2022-07-23T10:00:07;1.15;;;0.40;;
72621;SDS011;60665;53.506;9.582;2022-07-23T10:02:36;1.75;;;0.68;;
72621;SDS011;60665;53.506;9.582;2022-07-23T10:05:02;0.68;;;0.30;;
72621;SDS011;60665;53.506;9.582;2022-07-23T10:07:31;1.90;;;0.63;;
72621;SDS011;60665;53.506;9.582;2022-07-23T10:09:58;2.78;;;0.60;;
72621;SDS011;60665;53.506;9.582;2022-07-23T10:12:24;2.78;;;0.60;;
72621;SDS011;60665;53.506;9.582;2022-07-23T10:14:50;4.90;;;0.70;;
72621;SDS011;60665;53.506;9.582;2022-07-23T10:17:16;0.80;;;0.50;;
72621;SDS011;60665;53.506;9.582;2022-07-23T10:19:43;1.98;;;0.52;;
72621;SDS011;60665;53.506;9.582;2022-07-23T10:22:44;2.22;;;0.52;;
72621;SDS011;60665;53.506;9.582;2022-07-23T10:27:59;3.28;;;0.52;;
72621;SDS011;60665;53.506;9.582;2022-07-23T10:30:33;1.98;;;0.50;;
72621;SDS011;60665;53.506;9.582;2022-07-23T10:36:00;1.90;;;0.50;;
72621;SDS011;60665;53.506;9.582;2022-07-23T10:41:01;1.27;;;0.43;;
72621;SDS011;60665;53.506;9.582;2022-07-23T10:43:28;1.67;;;0.47;;
72621;SDS011;60665;53.506;9.582;2022-07-23T10:45:54;0.95;;;0.63;;
72621;SDS011;60665;53.506;9.582;2022-07-23T10:48:21;1.52;;;0.50;;
72621;SDS011;60665;53.506;9.582;2022-07-23T10:59:21;3.10;;;0.50;;
72621;SDS011;60665;53.506;9.582;2022-07-23T11:01:46;1.55;;;0.50;;
72621;SDS011;60665;53.506;9.582;2022-07-23T11:04:12;2.63;;;0.57;;
72621;SDS011;60665;53.506;9.582;2022-07-23T11:09:25;1.90;;;0.50;;
72621;SDS011;60665;53.506;9.582;2022-07-23T11:20:17;3.42;;;0.70;;
72621;SDS011;60665;53.506;9.582;2022-07-23T11:25:10;4.85;;;0.70;;
72621;SDS011;60665;53.506;9.582;2022-07-23T11:27:38;3.53;;;0.77;;
72621;SDS011;60665;53.506;9.582;2022-07-23T11:30:05;1.20;;;0.50;;
72621;SDS011;60665;53.506;9.582;2022-07-23T11:32:33;2.92;;;0.60;;
72621;SDS011;60665;53.506;9.582;2022-07-23T11:35:00;2.88;;;0.70;;
72621;SDS011;60665;53.506;9.582;2022-07-23T11:39:58;1.30;;;0.65;;
72621;SDS011;60665;53.506;9.582;2022-07-23T11:42:23;2.95;;;0.63;;
72621;SDS011;60665;53.506;9.582;2022-07-23T11:44:49;2.17;;;0.60;;
72621;SDS011;60665;53.506;9.582;2022-07-23T11:47:20;2.58;;;0.63;;
72621;SDS011;60665;53.506;9.582;2022-07-23T11:49:57;3.30;;;0.88;;
72621;SDS011;60665;53.506;9.582;2022-07-23T11:52:24;4.20;;;0.70;;
72621;SDS011;60665;53.506;9.582;2022-07-23T11:54:54;1.20;;;0.43;;
72621;SDS011;60665;53.506;9.582;2022-07-23T11:57:29;1.73;;;0.70;;
72621;SDS011;60665;53.506;9.582;2022-07-23T11:59:57;2.72;;;0.63;;
72621;SDS011;60665;53.506;9.582;2022-07-23T12:02:24;3.55;;;0.80;;
72621;SDS011;60665;53.506;9.582;2022-07-23T12:04:50;3.13;;;0.75;;
72621;SDS011;60665;53.506;9.582;2022-07-23T12:10:12;3.00;;;0.52;;
72621;SDS011;60665;53.506;9.582;2022-07-23T12:12:59;3.90;;;0.65;;
72621;SDS011;60665;53.506;9.582;2022-07-23T12:15:36;3.97;;;1.05;;
72621;SDS011;60665;53.506;9.582;2022-07-23T12:18:04;3.38;;;0.90;;
72621;SDS011;60665;53.506;9.582;2022-07-23T12:20:32;5.60;;;0.90;;
72621;SDS011;60665;53.506;9.582;2022-07-23T12:23:00;2.97;;;0.73;;
72621;SDS011;60665;53.506;9.582;2022-07-23T12:25:27;4.03;;;0.73;;
72621;SDS011;60665;53.506;9.582;2022-07-23T12:27:58;4.75;;;1.05;;
72621;SDS011;60665;53.506;9.582;2022-07-23T12:30:30;2.63;;;0.70;;
72621;SDS011;60665;53.506;9.582;2022-07-23T12:32:58;3.05;;;0.95;;
72621;SDS011;60665;53.506;9.582;2022-07-23T12:35:29;2.10;;;0.80;;
72621;SDS011;60665;53.506;9.582;2022-07-23T12:38:01;3.65;;;0.90;;
72621;SDS011;60665;53.506;9.582;2022-07-23T12:40:29;2.67;;;0.70;;
72621;SDS011;60665;53.506;9.582;2022-07-23T12:43:46;2.80;;;0.73;;
72621;SDS011;60665;53.506;9.582;2022-07-23T12:46:13;2.15;;;0.80;;
72621;SDS011;60665;53.506;9.582;2022-07-23T12:48:49;2.55;;;0.85;;
72621;SDS011;60665;53.506;9.582;2022-07-23T12:51:23;2.92;;;0.65;;
72621;SDS011;60665;53.506;9.582;2022-07-23T12:53:52;2.92;;;1.00;;
72621;SDS011;60665;53.506;9.582;2022-07-23T12:56:29;2.67;;;0.68;;
72621;SDS011;60665;53.506;9.582;2022-07-23T12:58:56;2.72;;;0.75;;
72621;SDS011;60665;53.506;9.582;2022-07-23T13:01:29;3.15;;;0.88;;
72621;SDS011;60665;53.506;9.582;2022-07-23T13:06:35;2.40;;;0.73;;
72621;SDS011;60665;53.506;9.582;2022-07-23T13:09:02;3.25;;;0.70;;
72621;SDS011;60665;53.506;9.582;2022-07-23T13:11:29;3.88;;;1.00;;
72621;SDS011;60665;53.506;9.582;2022-07-23T13:13:55;3.08;;;0.68;;
72621;SDS011;60665;53.506;9.582;2022-07-23T13:16:20;3.90;;;0.80;;
72621;SDS011;60665;53.506;9.582;2022-07-23T13:18:46;2.35;;;0.80;;
72621;SDS011;60665;53.506;9.582;2022-07-23T13:21:11;2.53;;;0.93;;
72621;SDS011;60665;53.506;9.582;2022-07-23T13:23:36;2.85;;;0.70;;
72621;SDS011;60665;53.506;9.582;2022-07-23T13:26:02;2.88;;;0.75;;
72621;SDS011;60665;53.506;9.582;2022-07-23T13:28:28;2.53;;;0.63;;
72621;SDS011;60665;53.506;9.582;2022-07-23T13:30:54;3.40;;;0.50;;
72621;SDS011;60665;53.506;9.582;2022-07-23T13:33:20;2.08;;;0.70;;
72621;SDS011;60665;53.506;9.582;2022-07-23T13:40:39;2.63;;;0.70;;
72621;SDS011;60665;53.506;9.582;2022-07-23T13:43:07;2.45;;;0.60;;
72621;SDS011;60665;53.506;9.582;2022-07-23T13:45:34;2.05;;;0.60;;
72621;SDS011;60665;53.506;9.582;2022-07-23T13:47:59;2.25;;;0.60;;
72621;SDS011;60665;53.506;9.582;2022-07-23T13:50:25;3.03;;;0.63;;
72621;SDS011;60665;53.506;9.582;2022-07-23T13:52:50;2.22;;;0.52;;
72621;SDS011;60665;53.506;9.582;2022-07-23T13:55:16;2.05;;;0.63;;
72621;SDS011;60665;53.506;9.582;2022-07-23T13:57:41;2.13;;;0.70;;
72621;SDS011;60665;53.506;9.582;2022-07-23T14:00:07;1.38;;;0.52;;
72621;SDS011;60665;53.506;9.582;2022-07-23T14:02:36;1.92;;;0.60;;
72621;SDS011;60665;53.506;9.582;2022-07-23T14:05:03;2.35;;;0.52;;
72621;SDS011;60665;53.506;9.582;2022-07-23T14:07:33;2.08;;;0.60;;
72621;SDS011;60665;53.506;9.582;2022-07-23T14:09:59;1.77;;;0.65;;
72621;SDS011;60665;53.506;9.582;2022-07-23T14:12:25;3.00;;;0.75;;
72621;SDS011;60665;53.506;9.582;2022-07-23T14:14:50;1.90;;;0.63;;
72621;SDS011;60665;53.506;9.582;2022-07-23T14:17:16;3.47;;;0.70;;
72621;SDS011;60665;53.506;9.582;2022-07-23T14:19:42;6.40;;;0.80;;
72621;SDS011;60665;53.506;9.582;2022-07-23T14:22:08;5.28;;;0.60;;
72621;SDS011;60665;53.506;9.582;2022-07-23T14:24:33;2.72;;;0.57;;
72621;SDS011;60665;53.506;9.582;2022-07-23T14:27:00;3.97;;;0.70;;
72621;SDS011;60665;53.506;9.582;2022-07-23T14:29:27;3.40;;;0.60;;
72621;SDS011;60665;53.506;9.582;2022-07-23T14:31:52;1.85;;;0.70;;
72621;SDS011;60665;53.506;9.582;2022-07-23T14:34:17;5.50;;;0.68;;
72621;SDS011;60665;53.506;9.582;2022-07-23T14:36:43;4.13;;;1.02;;
72621;SDS011;60665;53.506;9.582;2022-07-23T14:39:08;3.00;;;0.63;;
72621;SDS011;60665;53.506;9.582;2022-07-23T14:41:34;2.13;;;0.63;;
72621;SDS011;60665;53.506;9.582;2022-07-23T14:44:00;1.10;;;0.52;;
72621;SDS011;60665;53.506;9.582;2022-07-23T14:46:26;2.40;;;0.60;;
72621;SDS011;60665;53.506;9.582;2022-07-23T14:48:52;1.50;;;0.60;;
72621;SDS011;60665;53.506;9.582;2022-07-23T14:51:17;3.50;;;0.73;;
72621;SDS011;60665;53.506;9.582;2022-07-23T14:53:43;4.25;;;0.63;;
72621;SDS011;60665;53.506;9.582;2022-07-23T14:56:08;3.67;;;0.73;;
72621;SDS011;60665;53.506;9.582;2022-07-23T14:58:34;2.45;;;0.70;;
72621;SDS011;60665;53.506;9.582;2022-07-23T15:00:59;2.70;;;0.63;;
72621;SDS011;60665;53.506;9.582;2022-07-23T15:03:25;1.73;;;0.60;;
72621;SDS011;60665;53.506;9.582;2022-07-23T15:05:50;1.95;;;0.73;;
72621;SDS011;60665;53.506;9.582;2022-07-23T15:08:16;1.98;;;0.60;;
72621;SDS011;60665;53.506;9.582;2022-07-23T15:10:42;2.63;;;0.60;;
72621;SDS011;60665;53.506;9.582;2022-07-23T15:13:07;1.67;;;0.63;;
72621;SDS011;60665;53.506;9.582;2022-07-23T15:15:33;2.33;;;0.80;;
72621;SDS011;60665;53.506;9.582;2022-07-23T15:17:58;2.92;;;0.68;;
72621;SDS011;60665;53.506;9.582;2022-07-23T15:20:23;2.13;;;0.70;;
72621;SDS011;60665;53.506;9.582;2022-07-23T15:22:49;4.10;;;1.25;;
72621;SDS011;60665;53.506;9.582;2022-07-23T15:25:15;3.83;;;0.70;;
72621;SDS011;60665;53.506;9.582;2022-07-23T15:27:40;1.85;;;0.70;;
72621;SDS011;60665;53.506;9.582;2022-07-23T15:30:06;3.03;;;0.85;;
72621;SDS011;60665;53.506;9.582;2022-07-23T15:32:31;2.72;;;0.88;;
72621;SDS011;60665;53.506;9.582;2022-07-23T15:34:57;1.88;;;0.75;;
72621;SDS011;60665;53.506;9.582;2022-07-23T15:37:22;4.50;;;0.82;;
72621;SDS011;60665;53.506;9.582;2022-07-23T15:39:49;2.85;;;0.70;;